Time;durP1;ratioP1;P1;durP2;ratioP2;P2;SDS_P1;SDS_P2;PMS_P1;PMS_P2;Temp;Humidity;BMP_temperature;BMP_pressure;BME280_temperature;BME280_humidity;BME280_pressure;Samples;Min_cycle;Max_cycle;Signal;HPM_P1;HPM_P2
2021/08/14 00:01:57;;;;;;;9.73;6.10;;;;;;;20.22;70.08;97244.77;127980;1089;25542;-83
2021/08/14 00:04:28;;;;;;;9.83;6.55;;;;;;;20.19;70.09;97242.73;127934;1090;26979;-82
2021/08/14 00:06:59;;;;;;;8.13;6.65;;;;;;;20.18;70.15;97241.16;128000;1089;31547;-83
2021/08/14 00:09:34;;;;;;;9.88;6.63;;;;;;;20.15;70.46;97237.21;127991;1090;22788;-82
2021/08/14 00:12:07;;;;;;;9.35;6.73;;;;;;;20.10;70.14;97231.99;128065;1090;24529;-82
2021/08/14 00:14:38;;;;;;;8.88;5.90;;;;;;;20.08;70.54;97236.13;128008;1090;26819;-82
2021/08/14 00:17:09;;;;;;;9.85;6.55;;;;;;;20.03;70.60;97245.19;127973;1090;27934;-83
2021/08/14 00:19:40;;;;;;;8.55;6.30;;;;;;;20.00;70.79;97248.53;127985;1090;24964;-82
2021/08/14 00:22:12;;;;;;;8.90;6.40;;;;;;;20.00;70.92;97239.66;127968;1090;26820;-81
2021/08/14 00:24:43;;;;;;;8.70;6.55;;;;;;;19.98;70.91;97239.96;127976;1090;25995;-82
2021/08/14 00:27:14;;;;;;;10.78;6.93;;;;;;;19.96;70.86;97242.19;127983;1090;24801;-83
2021/08/14 00:29:45;;;;;;;8.43;6.70;;;;;;;19.94;70.84;97241.73;127981;1090;28121;-83
2021/08/14 00:32:17;;;;;;;9.58;6.48;;;;;;;19.93;70.63;97237.46;127986;1090;24388;-82
2021/08/14 00:34:48;;;;;;;7.73;6.13;;;;;;;19.94;70.86;97249.80;127958;1090;28731;-83
2021/08/14 00:37:19;;;;;;;7.83;6.18;;;;;;;19.93;70.84;97242.05;127995;1090;26645;-82
2021/08/14 00:39:51;;;;;;;8.70;6.50;;;;;;;19.90;71.14;97238.11;127976;1090;25514;-82
2021/08/14 00:42:22;;;;;;;9.90;7.38;;;;;;;19.85;71.31;97241.78;127946;1093;27700;-82
2021/08/14 00:44:54;;;;;;;11.35;6.88;;;;;;;19.79;71.40;97234.19;127946;1093;26114;-81
2021/08/14 00:47:28;;;;;;;11.13;6.68;;;;;;;19.74;71.46;97235.17;127982;1093;23580;-82
2021/08/14 00:49:59;;;;;;;8.53;6.55;;;;;;;19.71;71.78;97235.81;128002;1090;22915;-81
2021/08/14 00:52:30;;;;;;;9.13;6.65;;;;;;;19.68;71.78;97230.27;127958;1093;26501;-82
2021/08/14 00:55:02;;;;;;;8.33;6.48;;;;;;;19.67;71.66;97224.09;128028;1090;28686;-83
2021/08/14 00:57:33;;;;;;;9.18;6.68;;;;;;;19.66;71.87;97230.59;128004;1090;27284;-82
2021/08/14 01:00:06;;;;;;;8.15;6.58;;;;;;;19.67;72.05;97229.48;127946;1090;84585;-82
2021/08/14 01:02:38;;;;;;;10.53;7.18;;;;;;;19.65;71.98;97230.92;127929;1090;25039;-81
2021/08/14 01:05:12;;;;;;;10.08;6.40;;;;;;;19.64;71.95;97229.34;127919;1093;66659;-81
2021/08/14 01:07:44;;;;;;;11.35;6.40;;;;;;;19.62;72.21;97223.50;127967;1093;25214;-82
2021/08/14 01:10:15;;;;;;;9.60;7.13;;;;;;;19.62;71.95;97226.19;127868;1090;78757;-81
2021/08/14 01:12:48;;;;;;;11.55;6.93;;;;;;;19.63;71.86;97217.79;127958;1090;25951;-82
2021/08/14 01:15:19;;;;;;;8.98;6.73;;;;;;;19.65;71.77;97220.16;127962;1089;26492;-82
2021/08/14 01:17:52;;;;;;;9.10;6.88;;;;;;;19.66;72.01;97217.14;127951;1090;31974;-83
2021/08/14 01:20:24;;;;;;;9.40;6.93;;;;;;;19.68;72.09;97219.51;127936;1090;29838;-82
2021/08/14 01:23:05;;;;;;;10.20;6.83;;;;;;;19.70;71.83;97211.90;127947;1093;32913;-82
2021/08/14 01:25:36;;;;;;;9.23;6.93;;;;;;;19.71;71.72;97218.89;128049;1090;22830;-82
2021/08/14 01:28:08;;;;;;;10.10;7.48;;;;;;;19.72;71.52;97210.49;127967;1090;32266;-82
2021/08/14 01:30:40;;;;;;;10.58;6.43;;;;;;;19.71;71.56;97208.91;127967;1090;27976;-82
2021/08/14 01:33:13;;;;;;;8.90;6.53;;;;;;;19.72;71.49;97204.33;127945;1092;25776;-82
2021/08/14 01:35:47;;;;;;;11.13;6.60;;;;;;;19.67;71.53;97199.09;127977;1091;24785;-82
2021/08/14 01:38:18;;;;;;;10.83;7.05;;;;;;;19.66;71.56;97200.21;128036;1090;28433;-82
2021/08/14 01:40:49;;;;;;;8.85;6.88;;;;;;;19.63;71.73;97196.27;128019;1090;24646;-82
2021/08/14 01:43:21;;;;;;;9.83;6.63;;;;;;;19.61;71.33;97201.19;127956;1090;26850;-82
2021/08/14 01:45:53;;;;;;;8.55;6.25;;;;;;;19.61;71.49;97203.88;127942;1090;27655;-82
2021/08/14 01:48:24;;;;;;;12.35;7.08;;;;;;;19.60;71.50;97193.45;127951;1090;30391;-82
2021/08/14 01:50:55;;;;;;;8.70;6.80;;;;;;;19.61;71.39;97198.50;127998;1090;23867;-83
2021/08/14 01:53:26;;;;;;;9.38;6.88;;;;;;;19.61;71.37;97192.33;127943;1090;29386;-82
2021/08/14 01:55:57;;;;;;;9.00;6.70;;;;;;;19.59;71.68;97195.34;127973;1089;25769;-82
2021/08/14 01:58:29;;;;;;;8.73;6.43;;;;;;;19.58;71.52;97198.36;127978;1093;24954;-82
2021/08/14 02:01:00;;;;;;;10.73;7.28;;;;;;;19.60;71.48;97196.92;127978;1090;31021;-82
2021/08/14 02:03:31;;;;;;;8.55;6.55;;;;;;;19.61;71.44;97208.47;127976;1091;22829;-82
2021/08/14 02:06:03;;;;;;;9.80;6.93;;;;;;;19.63;71.37;97198.17;128045;1090;22940;-82
2021/08/14 02:08:35;;;;;;;9.37;6.83;;;;;;;19.63;71.48;97198.96;128055;1090;25435;-81
2021/08/14 02:11:12;;;;;;;8.98;6.50;;;;;;;19.60;71.38;97196.14;128058;1090;27314;-82
2021/08/14 02:13:44;;;;;;;9.45;6.90;;;;;;;19.55;71.31;97200.55;127987;1090;22829;-82
2021/08/14 02:16:17;;;;;;;9.58;6.73;;;;;;;19.51;71.59;97199.59;127988;1091;25510;-82
2021/08/14 02:18:48;;;;;;;10.33;6.80;;;;;;;19.55;71.58;97202.45;127982;1090;28184;-82
2021/08/14 02:21:19;;;;;;;8.55;6.53;;;;;;;19.56;71.42;97196.78;127960;1090;31757;-82
2021/08/14 02:23:51;;;;;;;9.70;6.65;;;;;;;19.61;71.63;97192.33;127914;1090;33075;-82
2021/08/14 02:26:22;;;;;;;12.65;6.85;;;;;;;19.67;71.43;97191.81;128012;1090;27815;-82
2021/08/14 02:28:54;;;;;;;9.08;6.73;;;;;;;19.70;71.34;97190.38;127985;1090;34561;-82
2021/08/14 02:31:25;;;;;;;8.25;6.28;;;;;;;19.73;71.41;97184.38;127981;1090;23644;-82
2021/08/14 02:33:58;;;;;;;9.43;7.17;;;;;;;19.70;71.22;97191.16;127969;1090;23208;-82
2021/08/14 02:36:29;;;;;;;9.33;7.08;;;;;;;19.65;71.36;97187.88;127989;1090;23370;-82
2021/08/14 02:39:00;;;;;;;14.65;7.30;;;;;;;19.55;71.32;97176.34;127977;1090;23969;-82
2021/08/14 02:41:31;;;;;;;10.33;7.13;;;;;;;19.50;71.50;97173.81;127968;1091;27818;-81
2021/08/14 02:44:03;;;;;;;9.20;7.15;;;;;;;19.46;71.57;97175.58;128048;1090;23762;-82
2021/08/14 02:46:34;;;;;;;10.33;6.63;;;;;;;19.43;71.58;97178.92;128028;1090;26261;-82
2021/08/14 02:49:06;;;;;;;11.98;7.48;;;;;;;19.42;71.81;97177.31;128026;1090;27457;-81
2021/08/14 02:51:37;;;;;;;8.85;6.98;;;;;;;19.41;71.74;97167.67;127968;1090;27192;-81
2021/08/14 02:54:08;;;;;;;7.83;6.53;;;;;;;19.41;71.58;97167.67;127934;1090;25837;-82
2021/08/14 02:56:39;;;;;;;10.33;6.90;;;;;;;19.42;71.43;97157.70;128009;1090;24828;-81
2021/08/14 02:59:10;;;;;;;8.75;6.73;;;;;;;19.44;71.40;97156.30;127976;1090;25587;-82
2021/08/14 03:01:42;;;;;;;8.33;5.95;;;;;;;19.44;71.28;97150.13;127973;1089;23198;-82
2021/08/14 03:04:13;;;;;;;9.23;6.50;;;;;;;19.46;71.18;97159.45;127994;1090;36357;-82
2021/08/14 03:06:44;;;;;;;7.85;6.38;;;;;;;19.50;71.17;97151.52;127976;1090;27383;-82
2021/08/14 03:09:15;;;;;;;9.40;6.30;;;;;;;19.52;70.89;97152.77;127972;1090;24302;-82
2021/08/14 03:11:47;;;;;;;10.78;6.70;;;;;;;19.54;70.66;97150.57;128002;1090;24945;-82
2021/08/14 03:14:18;;;;;;;8.75;6.18;;;;;;;19.59;70.54;97151.52;127988;1090;23614;-83
2021/08/14 03:16:49;;;;;;;8.70;7.00;;;;;;;19.60;70.47;97142.34;127975;1090;54462;-82
2021/08/14 03:19:20;;;;;;;9.95;6.80;;;;;;;19.59;70.47;97144.24;127966;1090;42467;-82
2021/08/14 03:21:52;;;;;;;7.53;5.67;;;;;;;19.57;70.32;97151.84;127972;1090;22799;-82
2021/08/14 03:24:24;;;;;;;8.28;6.13;;;;;;;19.54;70.47;97147.88;128020;1089;26292;-82
2021/08/14 03:26:55;;;;;;;7.68;6.40;;;;;;;19.51;70.60;97142.33;127941;1090;46014;-82
2021/08/14 03:29:26;;;;;;;7.08;5.95;;;;;;;19.48;70.71;97148.36;127963;1090;27772;-83
2021/08/14 03:31:58;;;;;;;8.33;6.23;;;;;;;19.47;70.70;97150.27;128016;1090;26125;-82
2021/08/14 03:34:29;;;;;;;8.98;6.75;;;;;;;19.44;70.66;97156.30;127968;1090;27495;-81
2021/08/14 03:37:00;;;;;;;7.00;6.13;;;;;;;19.46;70.74;97156.75;128011;1090;23492;-82
2021/08/14 03:39:33;;;;;;;9.30;6.58;;;;;;;19.49;70.47;97158.80;127996;1090;25753;-82
2021/08/14 03:42:05;;;;;;;8.10;6.10;;;;;;;19.55;70.28;97168.28;128020;1090;27818;-82
2021/08/14 03:44:36;;;;;;;9.85;6.65;;;;;;;19.60;70.59;97169.23;128047;1088;23471;-82
2021/08/14 03:47:08;;;;;;;9.55;6.95;;;;;;;19.65;70.08;97155.59;127960;1090;30368;-82
2021/08/14 03:49:39;;;;;;;9.90;6.68;;;;;;;19.72;70.34;97164.76;128009;1090;23258;-82
2021/08/14 03:52:11;;;;;;;8.88;6.83;;;;;;;19.80;70.08;97163.91;127976;1090;25323;-81
2021/08/14 03:54:43;;;;;;;8.97;6.03;;;;;;;19.87;69.86;97174.19;127979;1090;24663;-83
2021/08/14 03:57:14;;;;;;;8.58;6.38;;;;;;;19.92;69.89;97173.98;127995;1090;25659;-81
2021/08/14 03:59:46;;;;;;;10.73;6.40;;;;;;;19.98;69.48;97163.81;127996;1090;24193;-82
2021/08/14 04:02:17;;;;;;;8.60;6.70;;;;;;;20.02;69.60;97162.08;127959;1089;28899;-83
2021/08/14 04:04:49;;;;;;;7.13;5.90;;;;;;;20.05;69.47;97172.97;127999;1090;26414;-82
2021/08/14 04:07:20;;;;;;;9.15;6.55;;;;;;;20.06;69.68;97169.16;127991;1090;25965;-81
2021/08/14 04:09:51;;;;;;;8.53;5.73;;;;;;;20.10;69.21;97171.98;127956;1090;48636;-82
2021/08/14 04:12:22;;;;;;;8.35;5.83;;;;;;;20.11;69.30;97178.94;127945;1090;27093;-83
2021/08/14 04:14:54;;;;;;;11.53;8.45;;;;;;;20.11;69.70;97184.33;127958;1090;23397;-81
2021/08/14 04:17:25;;;;;;;16.20;10.75;;;;;;;20.10;69.86;97204.28;127987;1090;27077;-81
2021/08/14 04:19:56;;;;;;;15.58;11.80;;;;;;;20.10;70.05;97205.08;127953;1090;27479;-82
2021/08/14 04:22:27;;;;;;;14.75;8.55;;;;;;;20.09;70.51;97198.11;127965;1090;24002;-82
2021/08/14 04:24:59;;;;;;;13.83;9.93;;;;;;;20.11;70.76;97201.27;127945;1090;60280;-83
2021/08/14 04:27:31;;;;;;;13.05;8.95;;;;;;;20.05;71.28;97199.89;127989;1090;32270;-82
2021/08/14 04:30:03;;;;;;;13.27;8.43;;;;;;;19.95;71.52;97202.94;128002;1090;25706;-83
2021/08/14 04:32:38;;;;;;;11.43;7.30;;;;;;;19.91;71.73;97196.63;128029;1090;68212;-82
2021/08/14 04:35:13;;;;;;;10.65;8.13;;;;;;;19.83;72.29;97176.71;128050;1090;30437;-83
2021/08/14 04:37:45;;;;;;;15.20;11.65;;;;;;;19.73;72.25;97189.76;128025;1089;27972;-83
2021/08/14 04:40:17;;;;;;;19.83;13.90;;;;;;;19.69;72.75;97204.94;127987;1090;27733;-82
2021/08/14 04:42:49;;;;;;;14.43;11.23;;;;;;;19.60;72.81;97199.61;127971;1090;25785;-82
2021/08/14 04:45:21;;;;;;;13.90;10.07;;;;;;;19.46;73.28;97207.06;128018;1090;26168;-83
2021/08/14 04:47:52;;;;;;;10.25;7.28;;;;;;;19.37;73.76;97204.38;127949;1090;27674;-82
2021/08/14 04:50:24;;;;;;;7.80;6.30;;;;;;;19.25;74.24;97201.56;127942;1090;30071;-82
2021/08/14 04:52:55;;;;;;;9.20;6.37;;;;;;;19.12;75.43;97218.66;127994;1090;28149;-82
2021/08/14 04:55:27;;;;;;;8.60;6.30;;;;;;;18.96;75.94;97202.23;128008;1089;22799;-82
2021/08/14 04:57:58;;;;;;;9.00;6.43;;;;;;;18.90;76.40;97196.25;127990;1089;24188;-82
2021/08/14 05:00:30;;;;;;;8.20;5.50;;;;;;;18.90;76.91;97196.25;127942;1090;28795;-82
2021/08/14 05:03:02;;;;;;;7.98;6.15;;;;;;;18.88;77.65;97198.46;128002;1090;22827;-82
2021/08/14 05:05:33;;;;;;;7.37;5.93;;;;;;;18.92;78.10;97206.67;128038;1090;24850;-82
2021/08/14 05:08:04;;;;;;;10.70;6.38;;;;;;;18.89;78.19;97200.04;127987;1089;31412;-82
2021/08/14 05:10:36;;;;;;;9.48;6.98;;;;;;;18.94;78.21;97197.18;128014;1090;27069;-82
2021/08/14 05:13:07;;;;;;;9.18;5.95;;;;;;;18.95;77.92;97201.45;128041;1090;26411;-81
2021/08/14 05:15:38;;;;;;;9.28;6.13;;;;;;;19.00;77.89;97195.11;127927;1090;25940;-82
2021/08/14 05:18:10;;;;;;;8.23;6.00;;;;;;;19.01;78.70;97191.34;128003;1090;26860;-82
2021/08/14 05:20:41;;;;;;;10.45;6.28;;;;;;;18.93;78.92;97200.98;127968;1090;24735;-81
2021/08/14 05:23:12;;;;;;;8.05;6.38;;;;;;;18.85;79.44;97199.07;127968;1090;25136;-82
2021/08/14 05:25:44;;;;;;;10.15;6.43;;;;;;;18.80;80.47;97201.93;127959;1090;23316;-83
2021/08/14 05:28:15;;;;;;;7.78;6.28;;;;;;;18.70;80.22;97210.30;127999;1090;29279;-81
2021/08/14 05:30:46;;;;;;;8.93;6.25;;;;;;;18.74;80.67;97189.77;127995;1090;27734;-82
2021/08/14 05:33:18;;;;;;;9.10;5.95;;;;;;;18.79;80.37;97191.50;127990;1090;26607;-82
2021/08/14 05:35:49;;;;;;;9.83;6.10;;;;;;;18.84;80.10;97191.33;127978;1089;26080;-82
2021/08/14 05:38:20;;;;;;;8.70;6.03;;;;;;;18.85;80.28;97199.07;127991;1089;33263;-82
2021/08/14 05:40:51;;;;;;;7.45;5.55;;;;;;;18.93;80.51;97197.50;127975;1090;25498;-83
2021/08/14 05:43:23;;;;;;;9.10;6.28;;;;;;;19.06;80.63;97185.00;127977;1090;28275;-82
2021/08/14 05:45:54;;;;;;;10.70;6.55;;;;;;;19.33;81.08;97187.32;128006;1090;26141;-82
2021/08/14 05:48:26;;;;;;;9.58;6.48;;;;;;;20.26;79.50;97175.68;127983;1090;26137;-82
2021/08/14 05:50:58;;;;;;;7.65;5.80;;;;;;;20.10;78.17;97183.53;127962;1090;25239;-82
2021/08/14 05:53:29;;;;;;;8.68;5.48;;;;;;;20.43;78.83;97185.60;127956;1090;23227;-82
2021/08/14 05:56:01;;;;;;;8.60;5.43;;;;;;;21.15;76.12;97191.66;128002;1090;27191;-82
2021/08/14 05:58:32;;;;;;;7.28;4.85;;;;;;;20.87;75.49;97177.97;127971;1090;29924;-81
2021/08/14 06:01:03;;;;;;;6.00;4.23;;;;;;;20.50;75.93;97191.24;127993;1090;27101;-82
2021/08/14 06:03:37;;;;;;;7.70;4.98;;;;;;;20.27;76.08;97203.39;128038;1090;24196;-82
2021/08/14 06:06:11;;;;;;;6.55;4.13;;;;;;;20.09;76.54;97192.73;127987;1090;23264;-82
2021/08/14 06:08:42;;;;;;;7.03;4.63;;;;;;;19.92;76.98;97203.59;127990;1090;25652;-82
2021/08/14 06:11:13;;;;;;;6.43;4.60;;;;;;;19.86;77.20;97221.05;127960;1090;30832;-81
2021/08/14 06:13:45;;;;;;;6.45;4.90;;;;;;;19.75;77.81;97234.05;127987;1090;24893;-83
2021/08/14 06:16:16;;;;;;;5.50;4.25;;;;;;;19.69;78.26;97242.61;127979;1090;23746;-83
2021/08/14 06:18:47;;;;;;;8.28;5.50;;;;;;;19.66;78.59;97251.33;127979;1090;26002;-82
2021/08/14 06:21:19;;;;;;;8.45;4.20;;;;;;;19.61;78.92;97235.37;127995;1090;27986;-83
2021/08/14 06:23:50;;;;;;;6.70;4.95;;;;;;;19.55;79.03;97213.22;127968;1089;28049;-83
2021/08/14 06:26:22;;;;;;;6.83;4.95;;;;;;;19.47;79.80;97214.80;127940;1090;29481;-82
2021/08/14 06:28:53;;;;;;;6.83;5.35;;;;;;;19.40;80.50;97222.56;127969;1089;36407;-83
2021/08/14 06:31:27;;;;;;;9.35;5.75;;;;;;;19.27;81.16;97227.01;127991;1090;25509;-83
2021/08/14 06:33:58;;;;;;;7.38;5.23;;;;;;;19.26;81.00;97224.64;128004;1090;26207;-83
2021/08/14 06:36:30;;;;;;;9.53;5.60;;;;;;;19.33;81.29;97224.17;127942;1090;24585;-83
2021/08/14 06:39:01;;;;;;;6.83;4.65;;;;;;;19.39;81.51;97220.98;128010;1090;25656;-83
2021/08/14 06:41:33;;;;;;;8.80;5.48;;;;;;;19.43;81.82;97223.84;128038;1090;30570;-83
2021/08/14 06:44:04;;;;;;;7.83;4.78;;;;;;;19.50;82.11;97224.91;128027;1090;27223;-83
2021/08/14 06:46:36;;;;;;;8.15;5.28;;;;;;;19.57;82.45;97229.84;128082;1090;31109;-84
2021/08/14 06:49:07;;;;;;;7.40;5.13;;;;;;;19.64;82.12;97223.95;128024;1090;29477;-83
2021/08/14 06:51:41;;;;;;;5.73;4.55;;;;;;;19.74;81.57;97226.31;128026;1090;27920;-83
2021/08/14 06:54:13;;;;;;;5.70;4.30;;;;;;;19.90;81.62;97226.56;127977;1089;24471;-82
2021/08/14 06:56:44;;;;;;;5.65;4.30;;;;;;;20.07;81.34;97219.19;127990;1090;24131;-83
2021/08/14 06:59:15;;;;;;;6.20;3.90;;;;;;;20.39;81.34;97223.13;128004;1090;23682;-83
2021/08/14 07:01:47;;;;;;;4.85;3.65;;;;;;;20.93;81.11;97214.36;128002;1090;23313;-83
2021/08/14 07:04:18;;;;;;;4.60;3.60;;;;;;;22.76;80.50;97211.88;127964;1090;25569;-83
2021/08/14 07:06:50;;;;;;;4.25;3.35;;;;;;;24.46;76.73;97214.75;127973;1090;26122;-83
2021/08/14 07:09:21;;;;;;;5.68;3.68;;;;;;;26.11;70.53;97219.48;127977;1090;26020;-83
2021/08/14 07:11:53;;;;;;;5.48;3.55;;;;;;;27.02;65.07;97218.45;127995;1090;24780;-83
2021/08/14 07:14:24;;;;;;;4.58;3.00;;;;;;;27.87;63.59;97218.58;127946;1090;29618;-83
2021/08/14 07:16:56;;;;;;;4.33;3.23;;;;;;;28.87;62.44;97220.11;128012;1090;24775;-83
2021/08/14 07:19:28;;;;;;;4.38;3.28;;;;;;;29.76;56.17;97214.91;127967;1090;31627;-83
2021/08/14 07:21:59;;;;;;;3.70;3.03;;;;;;;29.23;55.81;97219.05;128015;1090;24962;-83
2021/08/14 07:24:38;;;;;;;;;;;;;;;27.51;55.46;97216.30;127948;1090;29515;-83
2021/08/14 07:27:09;;;;;;;5.98;3.78;;;;;;;26.38;58.54;97212.94;127972;1090;29001;-83
2021/08/14 07:29:41;;;;;;;4.70;3.65;;;;;;;27.06;59.15;97220.09;128007;1090;26851;-83
2021/08/14 07:32:15;;;;;;;4.43;3.58;;;;;;;26.13;58.05;97223.41;127994;1088;32336;-82
2021/08/14 07:34:47;;;;;;;5.00;3.83;;;;;;;25.04;60.51;97229.19;127971;1090;27532;-83
2021/08/14 07:37:19;;;;;;;4.53;3.85;;;;;;;26.10;63.53;97221.42;128052;1090;24870;-83
2021/08/14 07:39:50;;;;;;;4.83;3.90;;;;;;;28.92;62.24;97222.45;128012;1090;25862;-83
2021/08/14 07:42:22;;;;;;;5.38;3.88;;;;;;;30.90;55.16;97214.80;127976;1090;30115;-83
2021/08/14 07:44:55;;;;;;;6.00;3.90;;;;;;;31.96;53.10;97220.91;127954;1091;25427;-82
2021/08/14 07:47:26;;;;;;;6.20;3.40;;;;;;;33.28;51.83;97214.84;127984;1090;32229;-83
2021/08/14 07:49:58;;;;;;;5.80;3.20;;;;;;;34.18;50.24;97223.34;128003;1089;27953;-83
2021/08/14 07:52:29;;;;;;;4.20;3.63;;;;;;;34.70;43.47;97212.61;127963;1093;33992;-82
2021/08/14 07:55:01;;;;;;;5.55;3.55;;;;;;;34.64;44.51;97217.06;127956;1093;30209;-83
2021/08/14 07:57:32;;;;;;;4.30;3.43;;;;;;;35.26;45.01;97207.16;127956;1088;54962;-84
2021/08/14 08:00:04;;;;;;;4.17;3.23;;;;;;;35.38;41.04;97209.29;127987;1090;35876;-82
2021/08/14 08:02:35;;;;;;;5.38;3.73;;;;;;;34.83;39.99;97207.24;128002;1090;24508;-82
2021/08/14 08:05:13;;;;;;;4.48;3.80;;;;;;;34.68;41.89;97209.50;128056;1090;28904;-83
2021/08/14 08:07:45;;;;;;;5.03;3.98;;;;;;;34.91;40.59;97216.16;127970;1091;26002;-82
2021/08/14 08:10:18;;;;;;;5.33;3.83;;;;;;;35.45;41.80;97218.59;127982;1090;31286;-82
2021/08/14 08:12:50;;;;;;;4.10;3.55;;;;;;;36.10;39.30;97213.93;127973;1089;28941;-82
2021/08/14 08:15:22;;;;;;;5.23;3.90;;;;;;;36.84;41.20;97215.98;127925;1090;28857;-81
2021/08/14 08:17:54;;;;;;;5.58;3.73;;;;;;;37.45;39.33;97220.56;127975;1093;27532;-83
2021/08/14 08:20:26;;;;;;;5.23;4.15;;;;;;;37.21;37.11;97208.22;127969;1091;25807;-83
2021/08/14 08:22:57;;;;;;;5.10;4.00;;;;;;;36.57;37.64;97203.25;127945;1090;28894;-83
2021/08/14 08:25:29;;;;;;;7.15;4.15;;;;;;;36.02;37.01;97200.73;127935;1090;33608;-83
2021/08/14 08:28:03;;;;;;;5.68;4.00;;;;;;;35.70;38.42;97203.03;127955;1090;27031;-83
2021/08/14 08:30:35;;;;;;;6.13;4.40;;;;;;;35.59;37.96;97196.98;128030;1092;27740;-83
2021/08/14 08:33:06;;;;;;;5.70;4.20;;;;;;;34.94;38.82;97198.80;127984;1090;27577;-83
2021/08/14 08:35:38;;;;;;;6.05;4.35;;;;;;;34.16;39.84;97206.48;127988;1090;27863;-83
2021/08/14 08:38:09;;;;;;;6.03;4.48;;;;;;;33.76;40.56;97202.78;127928;1090;30584;-83
2021/08/14 08:40:42;;;;;;;5.85;3.85;;;;;;;33.57;40.97;97196.01;127993;1090;25580;-82
2021/08/14 08:43:14;;;;;;;6.95;4.18;;;;;;;32.58;41.06;97192.52;127948;1090;30682;-82
2021/08/14 08:45:47;;;;;;;5.25;4.23;;;;;;;32.20;42.17;97178.75;127945;1090;27472;-83
2021/08/14 08:48:21;;;;;;;6.25;4.48;;;;;;;31.99;43.31;97174.25;127956;1090;34879;-83
2021/08/14 08:50:55;;;;;;;7.58;4.75;;;;;;;31.88;43.39;97182.56;127999;1090;24084;-83
2021/08/14 08:53:26;;;;;;;6.70;4.28;;;;;;;31.83;44.07;97180.27;127996;1090;29018;-83
2021/08/14 08:55:59;;;;;;;5.68;4.38;;;;;;;31.81;43.71;97173.60;127947;1090;35980;-82
2021/08/14 08:58:31;;;;;;;6.78;4.95;;;;;;;31.47;44.39;97176.19;127942;1090;40605;-81
2021/08/14 09:01:02;;;;;;;5.53;4.30;;;;;;;31.21;44.00;97181.03;127977;1090;27935;-82
2021/08/14 09:03:34;;;;;;;8.53;4.93;;;;;;;30.70;44.42;97179.69;128038;1090;25083;-82
2021/08/14 09:06:06;;;;;;;5.88;4.58;;;;;;;30.31;45.04;97173.50;128048;1090;26232;-82
2021/08/14 09:08:38;;;;;;;6.03;4.48;;;;;;;30.17;47.23;97174.31;128079;1090;26069;-84
2021/08/14 09:11:12;;;;;;;6.83;4.93;;;;;;;30.08;46.00;97171.96;127986;1089;26390;-82
2021/08/14 09:14:07;;;;;;;5.45;4.45;;;;;;;30.15;46.58;97171.19;127993;1090;30735;-82
2021/08/14 09:16:39;;;;;;;6.70;4.85;;;;;;;30.21;46.85;97177.81;127987;1090;25989;-81
2021/08/14 09:19:21;;;;;;;6.60;4.53;;;;;;;30.17;46.68;97179.77;127985;1090;26686;-81
2021/08/14 09:21:52;;;;;;;9.43;4.80;;;;;;;30.25;47.17;97175.06;127976;1090;26003;-82
2021/08/14 09:24:36;;;;;;;7.78;4.88;;;;;;;30.15;47.50;97176.66;127938;1090;24751;-82
2021/08/14 09:27:11;;;;;;;7.10;4.60;;;;;;;29.91;46.93;97175.47;127973;1090;30852;-82
2021/08/14 09:29:43;;;;;;;5.15;4.40;;;;;;;29.50;46.39;97164.13;127946;1089;26446;-82
2021/08/14 09:32:19;;;;;;;7.55;4.50;;;;;;;29.12;47.29;97176.50;127972;1090;26285;-82
2021/08/14 09:34:51;;;;;;;8.17;4.83;;;;;;;28.77;47.60;97161.54;127974;1090;23547;-83
2021/08/14 09:37:22;;;;;;;9.03;4.73;;;;;;;28.68;48.66;97159.16;127968;1090;26865;-82
2021/08/14 09:39:57;;;;;;;6.70;4.73;;;;;;;28.50;48.42;97157.52;127994;1090;24157;-83
2021/08/14 09:42:29;;;;;;;6.58;5.05;;;;;;;28.45;49.30;97158.67;128018;1090;23538;-82
2021/08/14 09:45:16;;;;;;;6.60;4.95;;;;;;;28.52;49.51;97152.45;127935;1090;26216;-83
2021/08/14 09:47:51;;;;;;;8.28;5.23;;;;;;;28.42;49.30;97155.91;128019;1090;35783;-83
2021/08/14 09:50:35;;;;;;;6.33;5.08;;;;;;;28.29;49.55;97156.25;127960;1090;35053;-82
2021/08/14 09:53:20;;;;;;;7.05;4.80;;;;;;;28.15;50.97;97152.59;128070;1088;25326;-83
2021/08/14 09:56:07;;;;;;;5.48;4.83;;;;;;;28.22;50.60;97142.53;128030;1088;26931;-83
2021/08/14 09:58:40;;;;;;;7.90;5.63;;;;;;;28.02;50.61;97149.42;127934;1090;25421;-83
2021/08/14 10:01:11;;;;;;;8.28;5.33;;;;;;;27.79;50.42;97141.45;127949;1090;31940;-82
2021/08/14 10:03:44;;;;;;;8.03;5.55;;;;;;;27.62;51.54;97142.86;127997;1090;25938;-82
2021/08/14 10:06:17;;;;;;;7.85;5.33;;;;;;;27.61;51.34;97146.74;127950;1090;24572;-82
2021/08/14 10:08:48;;;;;;;7.65;5.80;;;;;;;27.68;50.99;97135.92;127980;1090;26723;-82
2021/08/14 10:11:21;;;;;;;6.43;5.55;;;;;;;27.59;51.86;97135.45;127983;1090;24700;-82
2021/08/14 10:13:52;;;;;;;8.73;5.55;;;;;;;27.46;51.54;97126.77;127967;1090;25925;-82
2021/08/14 10:16:24;;;;;;;8.38;5.45;;;;;;;27.34;52.49;97131.71;127941;1090;26041;-82
2021/08/14 10:18:56;;;;;;;10.40;6.10;;;;;;;27.29;53.16;97134.76;127984;1090;24616;-82
2021/08/14 10:21:28;;;;;;;11.05;6.43;;;;;;;27.29;53.37;97132.03;127960;1090;22793;-82
2021/08/14 10:24:01;;;;;;;10.38;6.53;;;;;;;27.28;53.50;97135.91;127967;1089;24536;-83
2021/08/14 10:26:33;;;;;;;9.70;6.70;;;;;;;27.29;53.45;97137.48;127988;1090;29413;-82
2021/08/14 10:29:04;;;;;;;10.35;7.15;;;;;;;27.36;54.03;97129.39;128046;1088;27608;-83
2021/08/14 10:31:50;;;;;;;10.25;7.03;;;;;;;27.46;53.65;97134.16;128040;1089;23776;-82
2021/08/14 10:34:37;;;;;;;8.83;6.95;;;;;;;27.49;54.05;97119.78;127979;1090;26456;-82
2021/08/14 10:37:35;;;;;;;12.63;7.48;;;;;;;27.57;54.98;97121.39;128075;1090;33146;-83
2021/08/14 10:40:08;;;;;;;11.63;7.48;;;;;;;27.73;54.66;97115.70;128045;1090;26071;-83
2021/08/14 10:42:58;;;;;;;12.03;8.30;;;;;;;27.74;54.58;97112.63;128017;1090;25062;-78
2021/08/14 10:45:39;;;;;;;12.25;7.73;;;;;;;27.87;54.58;97115.03;127989;1090;33081;-82
2021/08/14 10:48:11;;;;;;;10.40;7.83;;;;;;;27.92;55.42;97107.30;127946;1090;27956;-82
2021/08/14 10:50:58;;;;;;;9.73;6.83;;;;;;;28.01;55.36;97098.77;127955;1090;26155;-82
2021/08/14 10:53:44;;;;;;;10.70;7.00;;;;;;;28.03;54.32;97101.92;127922;1090;28850;-83
2021/08/14 10:56:33;;;;;;;9.83;6.83;;;;;;;28.02;54.18;97092.96;127997;1090;32895;-82
2021/08/14 10:59:04;;;;;;;10.50;6.50;;;;;;;28.07;54.03;97091.81;128054;1093;28863;-83
2021/08/14 11:01:36;;;;;;;8.25;6.60;;;;;;;27.94;53.39;97094.07;128013;1090;42956;-82
2021/08/14 11:04:36;;;;;;;7.98;5.75;;;;;;;27.83;53.88;97084.25;128017;1090;31233;-82
2021/08/14 11:07:33;;;;;;;8.87;7.10;;;;;;;27.79;53.78;97095.92;128023;1090;25961;-82
2021/08/14 11:10:15;;;;;;;9.40;7.38;;;;;;;27.87;54.59;97088.59;127996;1090;30010;-83
2021/08/14 11:12:48;;;;;;;8.53;7.00;;;;;;;27.91;54.63;97083.16;127940;1090;29072;-82
2021/08/14 11:15:22;;;;;;;11.25;6.73;;;;;;;28.03;54.71;97072.72;127951;1090;25734;-81
2021/08/14 11:17:55;;;;;;;9.40;7.00;;;;;;;27.98;54.43;97083.18;127947;1090;26248;-82
2021/08/14 11:20:41;;;;;;;8.35;6.48;;;;;;;27.89;54.61;97077.30;127959;1090;28863;-83
2021/08/14 11:23:27;;;;;;;9.83;7.13;;;;;;;28.00;54.95;97072.67;127954;1090;24121;-82
2021/08/14 11:25:58;;;;;;;9.15;6.33;;;;;;;28.11;54.21;97076.25;127958;1090;40795;-82
2021/08/14 11:28:30;;;;;;;9.55;6.83;;;;;;;28.17;54.62;97071.23;127998;1089;25062;-82
2021/08/14 11:31:04;;;;;;;8.50;6.03;;;;;;;28.33;54.36;97071.72;127920;1090;29532;-82
2021/08/14 11:33:36;;;;;;;10.45;7.33;;;;;;;28.47;53.64;97076.45;128075;1090;23630;-82
2021/08/14 11:36:09;;;;;;;7.80;6.70;;;;;;;28.60;53.58;97077.68;128062;1090;22806;-83
2021/08/14 11:38:43;;;;;;;9.77;7.30;;;;;;;28.64;52.99;97067.55;127972;1090;26770;-80
2021/08/14 11:41:16;;;;;;;9.48;7.03;;;;;;;28.64;52.69;97070.28;127976;1090;29368;-84
2021/08/14 11:43:47;;;;;;;11.00;6.93;;;;;;;28.64;53.23;97062.09;127962;1090;27716;-83
2021/08/14 11:46:24;;;;;;;10.80;7.03;;;;;;;28.58;53.66;97053.52;127990;1090;25632;-83
2021/08/14 11:48:55;;;;;;;8.63;6.48;;;;;;;28.63;54.16;97063.27;127940;1090;77725;-83
2021/08/14 11:51:29;;;;;;;14.25;8.13;;;;;;;28.68;54.38;97051.96;127968;1090;24963;-82